createdAt,value
2023-08-18T00:01:50.954Z,6.68
2023-08-18T00:04:24.669Z,6.47
2023-08-18T00:06:58.027Z,7.20
2023-08-18T00:09:34.784Z,6.90
2023-08-18T00:12:07.848Z,7.15
2023-08-18T00:14:44.736Z,6.60
2023-08-18T00:17:21.497Z,7.05
2023-08-18T00:19:54.094Z,7.40
2023-08-18T00:22:31.791Z,7.05
2023-08-18T00:25:01.904Z,7.20
2023-08-18T00:27:30.429Z,7.30
2023-08-18T00:30:08.865Z,6.80
2023-08-18T00:32:45.539Z,7.65
2023-08-18T00:35:19.245Z,7.65
2023-08-18T00:37:58.831Z,7.93
2023-08-18T00:40:34.651Z,8.00
2023-08-18T00:43:04.180Z,7.45
2023-08-18T00:45:35.146Z,6.53
2023-08-18T00:48:14.030Z,6.88
2023-08-18T00:50:53.421Z,7.07
2023-08-18T00:53:22.557Z,6.75
2023-08-18T00:56:20.530Z,6.47
2023-08-18T00:58:55.162Z,6.82
2023-08-18T01:01:41.237Z,7.43
2023-08-18T01:06:44.802Z,7.32
2023-08-18T01:09:17.288Z,7.50
2023-08-18T01:12:17.831Z,7.53
2023-08-18T01:15:24.315Z,7.88
2023-08-18T01:18:10.126Z,7.32
2023-08-18T01:20:43.074Z,7.50
2023-08-18T01:23:16.395Z,7.95
2023-08-18T01:25:48.051Z,7.55
2023-08-18T01:28:30.021Z,7.50
2023-08-18T01:31:02.448Z,7.40
2023-08-18T01:34:14.866Z,6.95
2023-08-18T01:36:49.822Z,6.70
2023-08-18T01:39:27.373Z,7.32
2023-08-18T01:42:06.346Z,8.00
2023-08-18T01:44:41.151Z,7.47
2023-08-18T01:47:27.973Z,7.13
2023-08-18T01:50:04.536Z,7.70
2023-08-18T01:52:43.432Z,7.80
2023-08-18T01:55:19.880Z,7.43
2023-08-18T01:57:59.451Z,7.40
2023-08-18T02:00:42.216Z,7.38
2023-08-18T02:03:21.168Z,7.43
2023-08-18T02:05:50.500Z,7.82
2023-08-18T02:08:20.456Z,7.47
2023-08-18T02:10:50.335Z,8.20
2023-08-18T02:13:26.155Z,7.28
2023-08-18T02:15:57.366Z,7.78
2023-08-18T02:18:49.848Z,7.60
2023-08-18T02:21:19.221Z,8.50
2023-08-18T02:23:53.415Z,8.00
2023-08-18T02:26:29.516Z,7.90
2023-08-18T02:29:00.800Z,7.60
2023-08-18T02:31:46.472Z,8.10
2023-08-18T02:34:32.941Z,7.72
2023-08-18T02:37:30.975Z,7.10
2023-08-18T02:42:48.660Z,7.28
2023-08-18T02:45:34.782Z,7.75
2023-08-18T02:51:18.629Z,8.00
2023-08-18T02:53:57.080Z,8.13
2023-08-18T02:56:24.882Z,8.05
2023-08-18T02:58:56.573Z,7.93
2023-08-18T03:01:38.053Z,7.93
2023-08-18T03:04:07.494Z,7.57
2023-08-18T03:06:48.623Z,7.93
2023-08-18T03:09:21.807Z,7.93
2023-08-18T03:12:12.186Z,7.70
2023-08-18T03:14:44.297Z,7.65
2023-08-18T03:17:16.332Z,7.30
2023-08-18T03:19:48.708Z,7.55
2023-08-18T03:22:26.537Z,8.65
2023-08-18T03:25:19.365Z,8.68
2023-08-18T03:27:57.905Z,9.13
2023-08-18T03:30:28.061Z,8.73
2023-08-18T03:33:05.498Z,8.30
2023-08-18T03:36:00.036Z,7.85
2023-08-18T03:38:37.294Z,8.38
2023-08-18T03:41:22.152Z,8.13
2023-08-18T03:43:53.948Z,7.97
2023-08-18T03:46:28.903Z,8.40
2023-08-18T03:49:05.419Z,8.27
2023-08-18T03:51:35.407Z,8.02
2023-08-18T03:54:19.157Z,7.45
2023-08-18T03:56:59.798Z,7.93
2023-08-18T03:59:34.144Z,8.02
2023-08-18T04:02:07.334Z,7.60
2023-08-18T04:04:41.248Z,7.93
2023-08-18T04:07:17.293Z,7.80
2023-08-18T04:09:48.235Z,9.00
2023-08-18T04:12:39.710Z,8.25
2023-08-18T04:18:10.209Z,8.82
2023-08-18T04:21:04.574Z,8.77
2023-08-18T04:23:53.613Z,7.93
2023-08-18T04:26:53.714Z,8.30
2023-08-18T04:29:25.736Z,9.18
2023-08-18T04:31:59.396Z,8.50
2023-08-18T04:37:43.225Z,8.60
2023-08-18T04:40:24.539Z,8.63
2023-08-18T04:43:03.547Z,8.27
2023-08-18T04:45:33.431Z,7.95
2023-08-18T04:48:09.808Z,8.57
2023-08-18T04:51:08.969Z,9.20
2023-08-18T04:53:41.458Z,8.75
2023-08-18T04:56:11.018Z,8.50
2023-08-18T04:58:47.404Z,8.02
2023-08-18T05:01:22.037Z,8.23
2023-08-18T05:03:59.626Z,8.55
2023-08-18T05:06:35.928Z,8.07
2023-08-18T05:09:09.578Z,8.60
2023-08-18T05:11:39.679Z,8.43
2023-08-18T05:14:21.531Z,8.88
2023-08-18T05:16:51.595Z,8.20
2023-08-18T05:19:48.696Z,10.45
2023-08-18T05:22:25.277Z,10.23
2023-08-18T05:24:54.955Z,10.18
2023-08-18T05:27:27.771Z,10.63
2023-08-18T05:35:38.423Z,11.27
2023-08-18T05:38:14.831Z,10.30
2023-08-18T05:40:49.204Z,10.85
2023-08-18T05:43:24.730Z,10.32
2023-08-18T05:45:57.315Z,8.65
2023-08-18T05:48:26.642Z,10.38
2023-08-18T05:51:03.646Z,9.38
2023-08-18T05:53:40.972Z,9.40
2023-08-18T05:56:15.758Z,9.40
2023-08-18T05:58:54.937Z,8.95
2023-08-18T06:01:31.843Z,9.40
2023-08-18T06:06:30.665Z,9.75
2023-08-18T06:09:15.761Z,9.68
2023-08-18T06:11:49.510Z,8.85
2023-08-18T06:14:39.339Z,9.30
2023-08-18T06:17:23.931Z,9.60
2023-08-18T06:19:59.307Z,9.48
2023-08-18T06:22:38.522Z,9.02
2023-08-18T06:27:58.957Z,9.80
2023-08-18T06:30:27.376Z,9.77
2023-08-18T06:32:58.867Z,8.95
2023-08-18T06:35:33.669Z,8.57
2023-08-18T06:38:04.937Z,8.52
2023-08-18T06:40:41.858Z,9.55
2023-08-18T06:43:28.484Z,8.95
2023-08-18T06:46:04.597Z,9.38
2023-08-18T06:48:35.699Z,7.65
2023-08-18T06:54:27.020Z,8.18
2023-08-18T06:56:56.827Z,8.32
2023-08-18T06:59:30.871Z,9.45
2023-08-18T07:02:06.996Z,9.27
2023-08-18T07:04:38.695Z,7.50
2023-08-18T07:07:09.003Z,8.50
2023-08-18T07:09:44.836Z,7.53
2023-08-18T07:12:37.195Z,8.02
2023-08-18T07:15:14.614Z,7.50
2023-08-18T07:17:56.969Z,7.60
2023-08-18T07:20:25.944Z,8.30
2023-08-18T07:23:01.094Z,7.50
2023-08-18T07:25:33.801Z,8.05
2023-08-18T07:28:12.834Z,8.98
2023-08-18T07:30:56.985Z,9.27
2023-08-18T07:33:30.147Z,9.65
2023-08-18T07:36:06.546Z,8.18
2023-08-18T07:39:01.885Z,8.40
2023-08-18T07:41:35.729Z,8.38
2023-08-18T07:44:06.470Z,8.65
2023-08-18T07:46:40.608Z,7.88
2023-08-18T07:49:29.591Z,8.70
2023-08-18T07:52:02.164Z,7.40
2023-08-18T07:54:37.279Z,7.75
2023-08-18T07:57:07.932Z,7.07
2023-08-18T07:59:37.230Z,7.28
2023-08-18T08:02:23.688Z,7.70
2023-08-18T08:05:01.856Z,7.05
2023-08-18T08:07:46.209Z,6.90
2023-08-18T08:10:18.004Z,7.78
2023-08-18T08:13:01.779Z,6.68
2023-08-18T08:15:32.478Z,6.70
2023-08-18T08:18:12.302Z,7.50
2023-08-18T08:20:45.409Z,7.40
2023-08-18T08:23:32.229Z,7.53
2023-08-18T08:26:09.106Z,7.00
2023-08-18T08:28:37.222Z,7.22
2023-08-18T08:31:08.794Z,6.80
2023-08-18T08:33:42.948Z,7.18
2023-08-18T08:36:15.116Z,7.63
2023-08-18T08:38:53.496Z,7.00
2023-08-18T08:41:26.741Z,6.10
2023-08-18T08:44:26.402Z,7.30
2023-08-18T08:47:03.763Z,6.93
2023-08-18T08:49:35.103Z,7.57
2023-08-18T08:52:09.973Z,7.80
2023-08-18T08:57:37.426Z,7.32
2023-08-18T09:00:07.730Z,8.23
2023-08-18T09:02:37.786Z,7.28
2023-08-18T09:05:13.025Z,7.82
2023-08-18T09:07:42.871Z,6.70
2023-08-18T09:10:17.181Z,7.20
2023-08-18T09:12:59.114Z,7.40
2023-08-18T09:15:28.304Z,6.88
2023-08-18T09:18:07.247Z,6.78
2023-08-18T09:20:42.884Z,7.35
2023-08-18T09:23:15.257Z,6.53
2023-08-18T09:25:52.041Z,6.40
2023-08-18T09:28:30.961Z,5.93
2023-08-18T09:31:07.332Z,6.43
2023-08-18T09:33:48.424Z,6.50
2023-08-18T09:36:31.432Z,5.95
2023-08-18T09:39:28.243Z,5.43
2023-08-18T09:42:05.436Z,5.47
2023-08-18T09:44:52.705Z,5.40
2023-08-18T09:47:29.404Z,11.10
2023-08-18T09:50:06.612Z,7.97
2023-08-18T09:52:38.080Z,7.28
2023-08-18T09:55:17.111Z,7.00
2023-08-18T09:58:01.865Z,7.07
2023-08-18T10:00:38.362Z,7.45
2023-08-18T10:03:09.728Z,7.55
2023-08-18T10:05:41.710Z,6.93
2023-08-18T10:08:17.062Z,6.82
2023-08-18T10:10:52.200Z,6.82
2023-08-18T10:13:28.380Z,6.70
2023-08-18T10:16:03.739Z,7.07
2023-08-18T10:18:44.283Z,6.72
2023-08-18T10:21:19.438Z,6.60
2023-08-18T10:23:58.813Z,6.68
2023-08-18T10:26:37.121Z,6.28
2023-08-18T10:32:01.268Z,7.15
2023-08-18T10:34:41.526Z,7.53
2023-08-18T10:37:19.765Z,6.90
2023-08-18T10:40:01.102Z,6.22
2023-08-18T10:42:38.804Z,6.60
2023-08-18T10:48:18.890Z,6.28
2023-08-18T10:51:11.169Z,6.15
2023-08-18T10:53:48.656Z,7.05
2023-08-18T10:56:42.637Z,5.97
2023-08-18T10:59:16.488Z,5.93
2023-08-18T11:01:48.233Z,6.78
2023-08-18T11:04:21.222Z,7.55
2023-08-18T11:07:16.122Z,6.38
2023-08-18T11:10:21.494Z,6.10
2023-08-18T11:13:05.743Z,5.70
2023-08-18T11:15:37.241Z,5.78
2023-08-18T11:18:08.457Z,5.32
2023-08-18T11:20:48.849Z,6.18
2023-08-18T11:23:28.815Z,7.30
2023-08-18T11:26:14.587Z,5.03
2023-08-18T11:28:53.924Z,5.88
2023-08-18T11:31:53.316Z,5.85
2023-08-18T11:34:33.841Z,6.55
2023-08-18T11:37:15.866Z,6.50
2023-08-18T11:39:51.752Z,6.78
2023-08-18T11:42:28.821Z,6.53
2023-08-18T11:45:05.259Z,6.18
2023-08-18T11:50:40.679Z,6.20
2023-08-18T11:53:13.979Z,6.00
2023-08-18T11:55:52.535Z,6.10
2023-08-18T11:58:28.355Z,6.20
2023-08-18T12:01:09.681Z,6.20
2023-08-18T12:03:52.516Z,6.03
2023-08-18T12:06:27.706Z,6.30
2023-08-18T12:08:57.708Z,6.45
2023-08-18T12:11:26.749Z,6.90
2023-08-18T12:13:59.550Z,6.70
2023-08-18T12:16:37.111Z,6.22
2023-08-18T12:19:11.532Z,7.15
2023-08-18T12:21:45.537Z,7.07
2023-08-18T12:24:18.639Z,7.30
2023-08-18T12:26:50.602Z,6.45
2023-08-18T12:29:26.465Z,6.28
2023-08-18T12:31:56.167Z,6.00
2023-08-18T12:34:37.685Z,6.30
2023-08-18T12:37:07.945Z,6.10
2023-08-18T12:40:10.703Z,6.80
2023-08-18T12:42:48.060Z,6.40
2023-08-18T12:45:30.341Z,6.35
2023-08-18T12:48:10.888Z,6.50
2023-08-18T12:50:51.893Z,6.55
2023-08-18T12:53:28.724Z,6.20
2023-08-18T12:56:04.866Z,6.35
2023-08-18T12:58:40.176Z,7.22
2023-08-18T13:03:57.830Z,6.30
2023-08-18T13:06:26.529Z,6.20
2023-08-18T13:09:27.580Z,6.38
2023-08-18T13:11:59.639Z,5.93
2023-08-18T13:14:38.620Z,6.68
2023-08-18T13:17:10.101Z,6.47
2023-08-18T13:19:49.293Z,6.88
2023-08-18T13:22:25.000Z,6.95
2023-08-18T13:25:11.640Z,7.05
2023-08-18T13:27:48.646Z,7.15
2023-08-18T13:30:20.057Z,6.50
2023-08-18T13:33:06.983Z,6.65
2023-08-18T13:35:59.195Z,6.75
2023-08-18T13:38:33.525Z,6.45
2023-08-18T13:41:14.897Z,6.68
2023-08-18T13:43:49.574Z,6.60
2023-08-18T13:46:40.221Z,6.10
2023-08-18T13:52:32.212Z,5.80
2023-08-18T13:55:20.194Z,6.07
2023-08-18T13:57:52.973Z,6.45
2023-08-18T14:00:21.248Z,6.40
2023-08-18T14:02:51.825Z,5.25
2023-08-18T14:05:40.085Z,6.28
2023-08-18T14:08:31.678Z,5.72
2023-08-18T14:11:18.541Z,6.53
2023-08-18T14:14:00.702Z,6.40
2023-08-18T14:16:40.383Z,6.80
2023-08-18T14:19:12.672Z,6.13
2023-08-18T14:22:06.936Z,6.55
2023-08-18T14:24:47.937Z,6.85
2023-08-18T14:27:21.929Z,6.50
2023-08-18T14:30:00.407Z,6.57
2023-08-18T14:32:29.557Z,7.07
2023-08-18T14:35:13.021Z,6.90
2023-08-18T14:37:52.706Z,7.10
2023-08-18T14:40:28.150Z,6.75
2023-08-18T14:43:16.010Z,5.47
2023-08-18T14:46:03.259Z,5.85
2023-08-18T14:48:47.142Z,5.78
2023-08-18T14:51:31.838Z,5.40
2023-08-18T14:54:06.445Z,5.82
2023-08-18T14:56:44.333Z,6.05
2023-08-18T15:02:30.027Z,5.70
2023-08-18T15:05:07.956Z,6.05
2023-08-18T15:07:44.412Z,6.20
2023-08-18T15:10:14.063Z,5.70
2023-08-18T15:12:47.093Z,6.22
2023-08-18T15:15:22.220Z,6.57
2023-08-18T15:17:57.299Z,7.85
2023-08-18T15:20:30.911Z,7.05
2023-08-18T15:23:06.897Z,7.38
2023-08-18T15:26:03.982Z,7.13
2023-08-18T15:28:42.336Z,6.85
2023-08-18T15:31:20.898Z,7.47
2023-08-18T15:33:52.174Z,7.45
2023-08-18T15:36:46.466Z,8.00
2023-08-18T15:39:20.046Z,8.18
2023-08-18T15:42:09.400Z,7.75
2023-08-18T15:45:03.755Z,7.50
2023-08-18T15:47:36.576Z,7.50
2023-08-18T15:50:04.137Z,7.30
2023-08-18T15:52:34.315Z,7.20
2023-08-18T15:55:03.514Z,8.27
2023-08-18T15:57:35.738Z,7.50
2023-08-18T16:00:06.249Z,6.88
2023-08-18T16:08:26.125Z,7.30
2023-08-18T16:11:08.259Z,7.57
2023-08-18T16:13:49.168Z,7.15
2023-08-18T16:16:26.151Z,8.02
2023-08-18T16:18:57.473Z,7.70
2023-08-18T16:21:42.421Z,7.45
2023-08-18T16:24:32.816Z,7.88
2023-08-18T16:27:38.756Z,7.78
2023-08-18T16:30:11.522Z,8.48
2023-08-18T16:35:42.041Z,8.60
2023-08-18T16:41:15.335Z,8.35
2023-08-18T16:43:43.512Z,8.05
2023-08-18T16:49:18.122Z,7.50
2023-08-18T16:51:58.117Z,7.05
2023-08-18T16:54:30.491Z,7.43
2023-08-18T16:59:51.148Z,7.90
2023-08-18T17:02:41.463Z,7.60
2023-08-18T17:05:35.831Z,8.02
2023-08-18T17:08:30.915Z,7.80
2023-08-18T17:11:08.433Z,7.47
2023-08-18T17:14:01.947Z,7.57
2023-08-18T17:19:46.456Z,8.18
2023-08-18T17:22:20.598Z,7.68
2023-08-18T17:25:09.673Z,8.15
2023-08-18T17:28:02.923Z,8.32
2023-08-18T17:30:59.650Z,8.10
2023-08-18T17:33:34.643Z,8.50
2023-08-18T17:36:11.119Z,8.65
2023-08-18T17:38:44.043Z,8.63
2023-08-18T17:41:26.592Z,8.65
2023-08-18T17:44:07.300Z,8.30
2023-08-18T17:49:20.008Z,8.70
2023-08-18T17:54:41.251Z,8.52
2023-08-18T17:57:16.391Z,8.50
2023-08-18T17:59:51.400Z,8.77
2023-08-18T18:02:26.533Z,8.43
2023-08-18T18:05:06.827Z,8.63
2023-08-18T18:07:36.119Z,8.32
2023-08-18T18:10:10.479Z,8.70
2023-08-18T18:13:02.475Z,8.27
2023-08-18T18:15:33.007Z,8.30
2023-08-18T18:18:15.549Z,7.80
2023-08-18T18:20:57.990Z,7.13
2023-08-18T18:23:41.876Z,7.35
2023-08-18T18:26:14.637Z,6.82
2023-08-18T18:28:42.176Z,6.80
2023-08-18T18:31:15.882Z,7.32
2023-08-18T18:34:13.177Z,6.82
2023-08-18T18:37:01.133Z,7.50
2023-08-18T18:39:41.491Z,7.10
2023-08-18T18:42:22.887Z,7.38
2023-08-18T18:45:07.444Z,7.55
2023-08-18T18:47:40.893Z,7.20
2023-08-18T18:50:12.685Z,6.90
2023-08-18T18:55:44.041Z,7.47
2023-08-18T18:58:12.314Z,8.38
2023-08-18T19:00:47.278Z,7.82
2023-08-18T19:03:18.790Z,8.45
2023-08-18T19:05:51.719Z,8.57
2023-08-18T19:08:28.827Z,8.10
2023-08-18T19:11:02.497Z,8.10
2023-08-18T19:13:48.635Z,8.05
2023-08-18T19:16:29.051Z,8.00
2023-08-18T19:19:21.305Z,8.68
2023-08-18T19:22:00.307Z,8.30
2023-08-18T19:24:42.179Z,8.63
2023-08-18T19:27:30.214Z,7.95
2023-08-18T19:30:07.036Z,8.60
2023-08-18T19:32:38.440Z,8.40
2023-08-18T19:37:50.620Z,8.07
2023-08-18T19:40:18.810Z,8.45
2023-08-18T19:42:50.017Z,8.43
2023-08-18T19:45:21.736Z,8.20
2023-08-18T19:48:07.311Z,8.30
2023-08-18T19:50:44.414Z,8.65
2023-08-18T19:53:25.318Z,9.02
2023-08-18T19:56:03.720Z,8.55
2023-08-18T19:58:34.442Z,8.93
2023-08-18T20:01:17.042Z,8.20
2023-08-18T20:03:56.521Z,8.55
2023-08-18T20:06:42.465Z,8.50
2023-08-18T20:09:33.107Z,8.27
2023-08-18T20:12:07.717Z,9.38
2023-08-18T20:14:44.002Z,8.65
2023-08-18T20:17:18.015Z,8.55
2023-08-18T20:20:20.280Z,8.88
2023-08-18T20:22:59.026Z,9.38
2023-08-18T20:25:40.630Z,9.10
2023-08-18T20:28:10.335Z,8.85
2023-08-18T20:30:48.101Z,9.02
2023-08-18T20:33:46.641Z,10.15
2023-08-18T20:36:22.243Z,9.15
2023-08-18T20:38:55.967Z,9.23
2023-08-18T20:41:29.301Z,9.23
2023-08-18T20:44:01.154Z,9.30
2023-08-18T20:46:34.759Z,9.75
2023-08-18T20:49:23.391Z,9.63
2023-08-18T20:51:58.936Z,10.00
2023-08-18T20:54:32.777Z,9.75
2023-08-18T20:57:34.885Z,9.18
2023-08-18T21:00:04.564Z,9.63
2023-08-18T21:05:29.664Z,9.70
2023-08-18T21:08:01.342Z,9.23
2023-08-18T21:10:40.826Z,9.50
2023-08-18T21:13:14.535Z,9.90
2023-08-18T21:15:50.843Z,9.98
2023-08-18T21:21:03.498Z,9.55
2023-08-18T21:23:37.371Z,9.35
2023-08-18T21:26:11.845Z,10.23
2023-08-18T21:28:50.512Z,10.32
2023-08-18T21:31:33.295Z,9.75
2023-08-18T21:34:38.549Z,10.02
2023-08-18T21:37:10.778Z,9.65
2023-08-18T21:39:39.945Z,10.18
2023-08-18T21:42:14.599Z,9.43
2023-08-18T21:47:33.010Z,9.75
2023-08-18T21:52:58.708Z,10.63
2023-08-18T21:55:36.352Z,10.63
2023-08-18T21:58:09.513Z,11.18
2023-08-18T22:00:37.365Z,10.35
2023-08-18T22:03:15.544Z,10.35
2023-08-18T22:05:56.296Z,10.50
2023-08-18T22:08:30.103Z,10.50
2023-08-18T22:10:58.912Z,10.93
2023-08-18T22:19:52.667Z,10.52
2023-08-18T22:22:34.003Z,10.63
2023-08-18T22:25:07.533Z,10.48
2023-08-18T22:27:41.294Z,9.93
2023-08-18T22:30:14.043Z,10.82
2023-08-18T22:32:51.094Z,10.60
2023-08-18T22:35:21.818Z,10.85
2023-08-18T22:38:04.132Z,11.02
2023-08-18T22:40:47.537Z,10.63
2023-08-18T22:43:21.288Z,10.27
2023-08-18T22:48:51.990Z,10.35
2023-08-18T22:51:28.318Z,10.88
2023-08-18T22:54:14.932Z,10.73
2023-08-18T22:56:51.319Z,10.77
2023-08-18T22:59:24.060Z,10.70
2023-08-18T23:02:04.724Z,10.25
2023-08-18T23:04:38.865Z,10.88
2023-08-18T23:10:13.735Z,10.43
2023-08-18T23:12:50.507Z,10.38
2023-08-18T23:15:35.982Z,10.45
2023-08-18T23:18:08.147Z,10.00
2023-08-18T23:20:45.273Z,9.77
2023-08-18T23:23:19.325Z,10.73
2023-08-18T23:25:53.403Z,10.57
2023-08-18T23:28:30.702Z,10.98
2023-08-18T23:31:12.546Z,9.97
2023-08-18T23:33:45.632Z,10.55
2023-08-18T23:36:24.520Z,10.27
2023-08-18T23:39:00.020Z,10.35
2023-08-18T23:41:33.369Z,11.07
2023-08-18T23:44:12.465Z,10.00
2023-08-18T23:46:46.506Z,10.30
2023-08-18T23:49:18.085Z,10.68
2023-08-18T23:52:02.118Z,10.70
2023-08-18T23:54:33.973Z,10.63
2023-08-18T23:57:08.303Z,10.05
2023-08-18T23:59:40.586Z,10.88
